Time;durP1;ratioP1;P1;durP2;ratioP2;P2;SDS_P1;SDS_P2;PMS_P1;PMS_P2;Temp;Humidity;BMP_temperature;BMP_pressure;BME280_temperature;BME280_humidity;BME280_pressure;Samples;Min_cycle;Max_cycle;Signal;HPM_P1;HPM_P2
2023/03/30 00:00:57;;;;;;;;;;;;;;;5.01;64.32;100368.00;4988144;28;5265;-77
2023/03/30 00:03:49;;;;;;;;;;;;;;;5.06;64.37;100372.78;4988587;28;5232;-78
2023/03/30 00:06:41;;;;;;;;;;;;;;;5.02;64.41;100368.81;4989088;28;5059;-77
2023/03/30 00:09:33;;;;;;;;;;;;;;;5.09;64.30;100372.41;4987753;28;5289;-78
2023/03/30 00:12:26;;;;;;;;;;;;;;;5.10;64.16;100370.56;4988495;28;5120;-78
2023/03/30 00:15:18;;;;;;;;;;;;;;;5.11;64.10;100367.69;4989547;28;5250;-81
2023/03/30 00:18:10;;;;;;;;;;;;;;;5.08;64.14;100376.06;4989321;28;5157;-77
2023/03/30 00:21:02;;;;;;;;;;;;;;;5.05;64.34;100373.78;4990679;28;5015;-78
2023/03/30 00:23:53;;;;;;;;;;;;;;;5.12;63.94;100376.53;4987529;28;5062;-79
2023/03/30 00:26:44;;;;;;;;;;;;;;;5.07;64.23;100381.59;4986623;28;5058;-78
2023/03/30 00:29:36;;;;;;;;;;;;;;;5.09;64.21;100382.22;4988251;28;5059;-77
2023/03/30 00:32:28;;;;;;;;;;;;;;;5.11;63.96;100375.69;4986606;28;4971;-78
2023/03/30 00:35:20;;;;;;;;;;;;;;;5.12;64.01;100377.34;4987522;28;5080;-77
2023/03/30 00:38:12;;;;;;;;;;;;;;;5.19;63.72;100374.75;4987422;28;5128;-78
2023/03/30 00:41:05;;;;;;;;;;;;;;;5.18;63.67;100373.13;4988314;28;5194;-77
2023/03/30 00:43:57;;;;;;;;;;;;;;;5.11;63.93;100370.34;4987792;28;5159;-78
2023/03/30 00:46:48;;;;;;;;;;;;;;;5.15;63.69;100368.16;4987273;28;5105;-77
2023/03/30 00:49:40;;;;;;;;;;;;;;;5.22;63.54;100366.38;4989010;28;5102;-78
2023/03/30 00:52:32;;;;;;;;;;;;;;;5.10;63.97;100367.88;4988478;28;4996;-79
2023/03/30 00:55:24;;;;;;;;;;;;;;;5.12;63.97;100364.00;4986414;28;5035;-78
2023/03/30 00:58:16;;;;;;;;;;;;;;;5.14;63.74;100359.28;4987695;28;5047;-76
2023/03/30 01:01:09;;;;;;;;;;;;;;;5.16;63.69;100362.59;4985084;28;5004;-78
2023/03/30 01:04:02;;;;;;;;;;;;;;;5.15;63.75;100363.63;4987563;28;5095;-77
2023/03/30 01:06:56;;;;;;;;;;;;;;;5.19;63.59;100358.75;4988009;28;5131;-76
2023/03/30 01:09:48;;;;;;;;;;;;;;;5.14;63.61;100361.97;4986662;28;5023;-78
2023/03/30 01:12:39;;;;;;;;;;;;;;;5.23;63.59;100358.19;4987362;28;5189;-77
2023/03/30 01:15:32;;;;;;;;;;;;;;;5.18;63.44;100357.91;4986486;28;5183;-78
2023/03/30 01:18:24;;;;;;;;;;;;;;;5.13;63.70;100360.31;4990136;28;5288;-77
2023/03/30 01:21:16;;;;;;;;;;;;;;;5.14;63.69;100353.94;4987481;28;5193;-78
2023/03/30 01:24:08;;;;;;;;;;;;;;;5.18;63.51;100349.91;4985541;28;5014;-79
2023/03/30 01:27:00;;;;;;;;;;;;;;;5.22;63.22;100337.00;4984584;28;5122;-78
2023/03/30 01:29:52;;;;;;;;;;;;;;;5.24;63.31;100337.63;4988174;28;4988;-77
2023/03/30 01:32:44;;;;;;;;;;;;;;;5.24;63.37;100333.13;4987198;28;5051;-77
2023/03/30 01:35:36;;;;;;;;;;;;;;;5.23;63.29;100327.97;4985582;28;5189;-77
2023/03/30 01:38:28;;;;;;;;;;;;;;;5.21;63.27;100325.50;4986372;28;5003;-79
2023/03/30 01:41:21;;;;;;;;;;;;;;;5.18;63.46;100327.72;4987955;28;5050;-78
2023/03/30 01:44:13;;;;;;;;;;;;;;;5.27;63.29;100328.44;4987432;28;4909;-78
2023/03/30 01:47:06;;;;;;;;;;;;;;;5.27;63.28;100321.25;4987228;28;5012;-78
2023/03/30 01:49:57;;;;;;;;;;;;;;;5.20;63.41;100323.00;4988734;28;5140;-77
2023/03/30 01:52:52;;;;;;;;;;;;;;;5.22;63.12;100316.47;4986316;28;5046;-79
2023/03/30 01:55:44;;;;;;;;;;;;;;;5.21;63.40;100314.81;4987328;28;5276;-77
2023/03/30 01:58:36;;;;;;;;;;;;;;;5.24;63.18;100311.75;4984438;28;5031;-77
2023/03/30 02:01:27;;;;;;;;;;;;;;;5.32;63.14;100312.63;4983759;28;4967;-75
2023/03/30 02:04:19;;;;;;;;;;;;;;;5.27;63.16;100307.88;4987536;28;5063;-77
2023/03/30 02:07:11;;;;;;;;;;;;;;;5.23;63.53;100294.09;4984867;28;5043;-77
2023/03/30 02:10:03;;;;;;;;;;;;;;;5.24;63.27;100294.91;4986676;28;5067;-76
2023/03/30 02:12:55;;;;;;;;;;;;;;;5.30;63.06;100301.34;4987330;28;5142;-77
2023/03/30 02:15:47;;;;;;;;;;;;;;;5.29;63.07;100289.81;4984431;28;5126;-78
2023/03/30 02:18:39;;;;;;;;;;;;;;;5.32;63.06;100292.09;4987717;28;5087;-75
2023/03/30 02:21:31;;;;;;;;;;;;;;;5.27;63.02;100285.69;4987115;28;5243;-75
2023/03/30 02:24:23;;;;;;;;;;;;;;;5.37;62.57;100284.34;4984922;28;4964;-78
2023/03/30 02:27:15;;;;;;;;;;;;;;;5.35;62.89;100280.22;4986026;28;5106;-75
2023/03/30 02:30:07;;;;;;;;;;;;;;;5.30;62.93;100280.81;4986009;28;5115;-78
2023/03/30 02:32:59;;;;;;;;;;;;;;;5.30;63.03;100274.63;4986221;28;5294;-77
2023/03/30 02:35:51;;;;;;;;;;;;;;;5.34;62.73;100275.91;4986791;28;5305;-77
2023/03/30 02:38:43;;;;;;;;;;;;;;;5.32;62.74;100276.06;4986346;28;5281;-76
2023/03/30 02:41:35;;;;;;;;;;;;;;;5.33;62.74;100264.38;4986972;28;5395;-77
2023/03/30 02:44:27;;;;;;;;;;;;;;;5.27;63.04;100261.66;4988354;28;5261;-77
2023/03/30 02:47:19;;;;;;;;;;;;;;;5.32;62.91;100260.03;4987998;28;5107;-75
2023/03/30 02:50:11;;;;;;;;;;;;;;;5.34;62.70;100259.88;4991652;28;5264;-77
2023/03/30 02:53:02;;;;;;;;;;;;;;;5.35;62.68;100248.97;4990402;28;5257;-78
2023/03/30 02:55:54;;;;;;;;;;;;;;;5.30;62.82;100251.44;4988893;28;5273;-76
2023/03/30 02:58:46;;;;;;;;;;;;;;;5.29;62.97;100240.91;4990586;28;4712;-78
2023/03/30 03:01:38;;;;;;;;;;;;;;;5.35;62.65;100248.97;4990620;28;5303;-78
2023/03/30 03:04:33;;;;;;;;;;;;;;;5.43;62.59;100238.16;4991067;28;5175;-78
2023/03/30 03:07:26;;;;;;;;;;;;;;;5.39;62.64;100242.25;4989412;28;5324;-78
2023/03/30 03:10:18;;;;;;;;;;;;;;;5.43;62.43;100235.50;4990852;28;5019;-77
2023/03/30 03:13:09;;;;;;;;;;;;;;;5.45;62.31;100236.13;4992007;28;5242;-77
2023/03/30 03:16:01;;;;;;;;;;;;;;;5.32;62.72;100241.34;4991082;28;5225;-78
2023/03/30 03:18:53;;;;;;;;;;;;;;;5.44;62.61;100238.97;4989995;28;5186;-78
2023/03/30 03:21:45;;;;;;;;;;;;;;;5.41;62.58;100228.69;4989760;28;5213;-77
2023/03/30 03:24:37;;;;;;;;;;;;;;;5.39;62.61;100222.72;4988768;28;5198;-77
2023/03/30 03:27:29;;;;;;;;;;;;;;;5.39;62.72;100212.06;4988715;28;5204;-76
2023/03/30 03:30:20;;;;;;;;;;;;;;;5.46;62.37;100215.59;4989552;28;5107;-77
2023/03/30 03:33:12;;;;;;;;;;;;;;;5.39;62.57;100209.38;4989592;28;5019;-76
2023/03/30 03:36:04;;;;;;;;;;;;;;;5.48;62.35;100210.88;4989081;28;5060;-77
2023/03/30 03:38:57;;;;;;;;;;;;;;;5.45;62.55;100200.59;4990861;28;5102;-77
2023/03/30 03:41:49;;;;;;;;;;;;;;;5.42;62.52;100206.31;4989192;28;5242;-77
2023/03/30 03:44:41;;;;;;;;;;;;;;;5.49;62.34;100207.19;4990266;28;7068;-76
2023/03/30 03:47:33;;;;;;;;;;;;;;;5.42;62.62;100211.66;4988459;28;4929;-77
2023/03/30 03:50:25;;;;;;;;;;;;;;;5.53;62.09;100210.28;4988475;28;5103;-78
2023/03/30 03:53:17;;;;;;;;;;;;;;;5.46;62.21;100207.56;4989470;28;5139;-77
2023/03/30 03:56:10;;;;;;;;;;;;;;;5.53;62.24;100202.25;4986969;28;5080;-79
2023/03/30 03:59:03;;;;;;;;;;;;;;;5.52;62.04;100203.28;4985775;28;5012;-77
2023/03/30 04:01:55;;;;;;;;;;;;;;;5.50;62.26;100205.34;4987691;28;4985;-77
2023/03/30 04:04:47;;;;;;;;;;;;;;;5.46;62.52;100188.88;4991017;28;4972;-76
2023/03/30 04:07:40;;;;;;;;;;;;;;;5.52;62.24;100196.09;4988555;28;5026;-77
2023/03/30 04:10:32;;;;;;;;;;;;;;;5.56;62.20;100200.06;4988869;28;4911;-77
2023/03/30 04:13:24;;;;;;;;;;;;;;;5.61;62.18;100199.44;4989041;28;6715;-78
2023/03/30 04:16:16;;;;;;;;;;;;;;;5.55;62.07;100197.56;4984984;28;4973;-78
2023/03/30 04:19:11;;;;;;;;;;;;;;;5.64;61.83;100196.38;4988672;28;4927;-78
2023/03/30 04:22:05;;;;;;;;;;;;;;;5.60;62.14;100190.63;4987631;28;5018;-78
2023/03/30 04:24:56;;;;;;;;;;;;;;;5.53;62.37;100191.59;4988301;28;4876;-78
2023/03/30 04:27:49;;;;;;;;;;;;;;;5.62;62.08;100191.25;4984436;28;4925;-77
2023/03/30 04:30:44;;;;;;;;;;;;;;;5.61;62.12;100186.09;4986992;28;4910;-78
2023/03/30 04:33:37;;;;;;;;;;;;;;;5.52;62.15;100187.28;4985380;28;5138;-78
2023/03/30 04:36:29;;;;;;;;;;;;;;;5.59;62.21;100190.78;4988951;28;5350;-78
2023/03/30 04:39:21;;;;;;;;;;;;;;;5.58;61.93;100187.31;4988013;28;5092;-77
2023/03/30 04:42:13;;;;;;;;;;;;;;;5.59;62.04;100186.31;4985363;28;5001;-78
2023/03/30 04:45:04;;;;;;;;;;;;;;;5.64;61.94;100175.00;4986986;28;5017;-78
2023/03/30 04:47:55;;;;;;;;;;;;;;;5.68;61.89;100173.63;4987027;28;4937;-78
2023/03/30 04:50:48;;;;;;;;;;;;;;;5.63;61.88;100176.03;4984764;28;5169;-76
2023/03/30 04:53:49;;;;;;;;;;;;;;;;;;;;;
2023/03/30 04:56:41;;;;;;;;;;;;;;;5.66;62.06;100179.13;4976681;28;3937;-78
2023/03/30 04:59:33;;;;;;;;;;;;;;;5.65;61.85;100177.50;4972426;28;4711;-79
2023/03/30 05:02:25;;;;;;;;;;;;;;;5.68;61.65;100185.13;4971365;28;4207;-78
2023/03/30 05:05:17;;;;;;;;;;;;;;;5.69;61.81;100183.28;4972249;28;4858;-77
2023/03/30 05:08:09;;;;;;;;;;;;;;;5.59;62.23;100172.09;4985263;28;4652;-77
2023/03/30 05:11:03;;;;;;;;;;;;;;;5.59;62.24;100172.09;4986159;28;4904;-77
2023/03/30 05:13:55;;;;;;;;;;;;;;;5.60;62.05;100171.91;4987763;28;5207;-77
2023/03/30 05:16:46;;;;;;;;;;;;;;;5.56;62.16;100167.16;4985502;28;4826;-77
2023/03/30 05:19:38;;;;;;;;;;;;;;;5.54;62.33;100158.53;4986554;28;4965;-78
2023/03/30 05:22:30;;;;;;;;;;;;;;;5.63;62.21;100157.34;4987503;28;4933;-78
2023/03/30 05:25:22;;;;;;;;;;;;;;;5.59;62.11;100159.59;4988191;28;5007;-78
2023/03/30 05:28:15;;;;;;;;;;;;;;;5.61;61.99;100152.19;4986748;28;4926;-78
2023/03/30 05:31:07;;;;;;;;;;;;;;;5.60;62.05;100153.22;4985812;28;4941;-78
2023/03/30 05:33:59;;;;;;;;;;;;;;;5.59;62.06;100154.25;4987381;28;5299;-77
2023/03/30 05:36:51;;;;;;;;;;;;;;;5.56;62.26;100149.28;4986165;28;6920;-79
2023/03/30 05:39:43;;;;;;;;;;;;;;;5.55;62.27;100149.47;4986043;28;5078;-78
2023/03/30 05:42:35;;;;;;;;;;;;;;;5.54;62.19;100143.31;4986716;28;5036;-78
2023/03/30 05:45:28;;;;;;;;;;;;;;;5.57;62.25;100142.91;4984046;28;4886;-76
2023/03/30 05:48:20;;;;;;;;;;;;;;;5.60;62.07;100141.72;4984919;28;4910;-78
2023/03/30 05:51:12;;;;;;;;;;;;;;;5.56;62.33;100140.44;4984701;28;4914;-78
2023/03/30 05:54:04;;;;;;;;;;;;;;;5.51;62.37;100134.88;4987700;28;4930;-78
2023/03/30 05:56:56;;;;;;;;;;;;;;;5.49;62.34;100135.06;4988726;28;4937;-78
2023/03/30 05:59:48;;;;;;;;;;;;;;;5.54;62.28;100137.97;4987534;28;4938;-77
2023/03/30 06:02:40;;;;;;;;;;;;;;;5.47;62.68;100135.28;4985560;28;4921;-77
2023/03/30 06:05:33;;;;;;;;;;;;;;;5.51;62.31;100137.53;4986396;28;5019;-77
2023/03/30 06:08:26;;;;;;;;;;;;;;;5.53;62.34;100128.31;4972968;28;5048;-75
2023/03/30 06:11:18;;;;;;;;;;;;;;;5.46;62.45;100136.28;4969351;28;4760;-77
2023/03/30 06:14:10;;;;;;;;;;;;;;;5.45;62.46;100136.47;4970303;28;4782;-78
2023/03/30 06:17:02;;;;;;;;;;;;;;;5.45;62.57;100134.63;4985864;28;4890;-78
2023/03/30 06:19:54;;;;;;;;;;;;;;;5.43;62.83;100139.34;4985861;28;5106;-78
2023/03/30 06:22:46;;;;;;;;;;;;;;;5.43;62.52;100123.31;4985816;28;4815;-77
2023/03/30 06:25:38;;;;;;;;;;;;;;;5.39;62.78;100122.06;4988998;28;5032;-77
2023/03/30 06:28:30;;;;;;;;;;;;;;;5.49;62.41;100121.69;4988363;28;5111;-76
2023/03/30 06:31:22;;;;;;;;;;;;;;;5.43;62.47;100117.97;4981910;28;4835;-79
2023/03/30 06:34:14;;;;;;;;;;;;;;;5.40;62.71;100113.03;4981085;28;4661;-80
2023/03/30 06:37:06;;;;;;;;;;;;;;;5.43;62.49;100104.63;4981460;28;4912;-79
2023/03/30 06:39:58;;;;;;;;;;;;;;;5.38;62.75;100100.88;4979554;28;4730;-79
2023/03/30 06:42:50;;;;;;;;;;;;;;;5.41;62.69;100098.66;4986132;28;4775;-78
2023/03/30 06:45:42;;;;;;;;;;;;;;;5.43;62.55;100099.28;4978352;28;4985;-78
2023/03/30 06:48:33;;;;;;;;;;;;;;;5.42;62.56;100100.31;4967127;28;4788;-79
2023/03/30 06:51:25;;;;;;;;;;;;;;;5.41;62.66;100100.50;4968688;28;4744;-79
2023/03/30 06:54:19;;;;;;;;;;;;;;;5.35;62.84;100098.59;4969667;28;4097;-78
2023/03/30 06:57:12;;;;;;;;;;;;;;;5.37;62.86;100094.72;4966414;28;4734;-81
2023/03/30 07:00:12;;;;;;;;;;;;;;;5.38;62.69;100100.88;4975609;28;3943;-79
2023/03/30 07:03:05;;;;;;;;;;;;;;;5.33;62.81;100103.34;4971037;28;4528;-80
2023/03/30 07:05:57;;;;;;;;;;;;;;;5.41;62.64;100095.16;4973990;28;3881;-78
2023/03/30 07:08:49;;;;;;;;;;;;;;;5.40;62.67;100088.16;4970364;28;4314;-78
2023/03/30 07:11:41;;;;;;;;;;;;;;;5.36;62.59;100087.75;4975092;28;4973;-77
2023/03/30 07:14:33;;;;;;;;;;;;;;;5.40;62.60;100093.50;4980736;28;4740;-77
2023/03/30 07:17:26;;;;;;;;;;;;;;;5.39;62.63;100083.84;4986223;28;4752;-78
2023/03/30 07:20:17;;;;;;;;;;;;;;;5.30;62.71;100082.38;4970060;28;3690;-79
2023/03/30 07:23:10;;;;;;;;;;;;;;;5.30;62.76;100080.53;4971804;28;4673;-78
2023/03/30 07:26:02;;;;;;;;;;;;;;;5.33;62.72;100077.47;4987733;28;5060;-78
2023/03/30 07:28:53;;;;;;;;;;;;;;;5.36;62.52;100074.38;4985269;28;4961;-78
2023/03/30 07:31:45;;;;;;;;;;;;;;;5.36;62.56;100063.72;4984890;28;5031;-79
2023/03/30 07:34:37;;;;;;;;;;;;;;;5.35;62.62;100070.06;4988426;28;4922;-78
2023/03/30 07:37:29;;;;;;;;;;;;;;;5.32;62.68;100069.63;4986227;28;5008;-78
2023/03/30 07:40:20;;;;;;;;;;;;;;;5.30;62.71;100067.16;4988090;28;4981;-78
2023/03/30 07:43:12;;;;;;;;;;;;;;;5.34;62.88;100060.41;4988659;28;4974;-79
2023/03/30 07:46:04;;;;;;;;;;;;;;;5.28;62.92;100071.88;4991492;28;5196;-78
2023/03/30 07:48:56;;;;;;;;;;;;;;;5.31;62.77;100070.66;4991369;28;4970;-79
2023/03/30 07:51:48;;;;;;;;;;;;;;;5.27;62.85;100058.72;4990272;28;4799;-77
2023/03/30 07:54:39;;;;;;;;;;;;;;;5.23;63.17;100058.28;4987983;28;4978;-77
2023/03/30 07:57:31;;;;;;;;;;;;;;;5.21;63.02;100063.84;4984092;28;5200;-79
2023/03/30 08:00:23;;;;;;;;;;;;;;;5.30;62.84;100066.34;4988318;28;4941;-78
2023/03/30 08:03:14;;;;;;;;;;;;;;;5.27;62.74;100051.53;4973962;28;4835;-77
2023/03/30 08:06:06;;;;;;;;;;;;;;;5.24;62.85;100051.94;4973883;28;4855;-78
2023/03/30 08:08:58;;;;;;;;;;;;;;;5.24;62.88;100054.59;4981975;28;4954;-80
2023/03/30 08:11:50;;;;;;;;;;;;;;;5.26;62.79;100065.91;4990064;28;5000;-77
2023/03/30 08:14:42;;;;;;;;;;;;;;;5.27;62.99;100053.41;4992812;28;5001;-77
2023/03/30 08:17:34;;;;;;;;;;;;;;;5.29;62.83;100046.00;4989195;28;5195;-76
2023/03/30 08:20:26;;;;;;;;;;;;;;;5.27;62.71;100040.88;4989604;28;5023;-79
2023/03/30 08:23:18;;;;;;;;;;;;;;;5.28;62.70;100036.34;4988119;28;5073;-79
2023/03/30 08:26:10;;;;;;;;;;;;;;;5.30;62.78;100039.66;4987549;28;5017;-76
2023/03/30 08:29:01;;;;;;;;;;;;;;;5.37;62.53;100037.81;4989071;28;5284;-78
2023/03/30 08:31:52;;;;;;;;;;;;;;;5.28;62.92;100039.00;4987013;28;5130;-78
2023/03/30 08:34:44;;;;;;;;;;;;;;;5.25;62.80;100037.56;4990308;28;5130;-78
2023/03/30 08:37:36;;;;;;;;;;;;;;;5.23;63.00;100034.25;4988961;28;5230;-78
2023/03/30 08:40:28;;;;;;;;;;;;;;;5.22;62.92;100027.28;4990496;28;5161;-78
2023/03/30 08:43:20;;;;;;;;;;;;;;;5.24;62.87;100023.38;4991918;28;5118;-79
2023/03/30 08:46:12;;;;;;;;;;;;;;;5.23;63.05;100029.75;4984339;28;5093;-78
2023/03/30 08:49:04;;;;;;;;;;;;;;;5.22;62.95;100027.28;4976504;28;4585;-77
2023/03/30 08:51:56;;;;;;;;;;;;;;;5.27;62.87;100027.50;4977209;28;4877;-76
2023/03/30 08:54:48;;;;;;;;;;;;;;;5.26;62.90;100028.50;4978947;28;4871;-78
2023/03/30 08:57:40;;;;;;;;;;;;;;;5.16;63.24;100026.22;4978950;28;4725;-78
2023/03/30 09:00:32;;;;;;;;;;;;;;;5.24;62.88;100031.41;4985820;28;5171;-76
2023/03/30 09:03:24;;;;;;;;;;;;;;;5.24;62.86;100028.72;4987840;28;5193;-78
2023/03/30 09:06:18;;;;;;;;;;;;;;;5.23;63.02;100028.91;4986555;28;4988;-76
2023/03/30 09:09:10;;;;;;;;;;;;;;;5.21;62.96;100025.63;4990813;28;5008;-78
2023/03/30 09:12:02;;;;;;;;;;;;;;;5.19;63.09;100014.31;4987232;28;7028;-77
2023/03/30 09:14:54;;;;;;;;;;;;;;;5.16;63.37;100012.03;4978444;28;5364;-76
2023/03/30 09:17:46;;;;;;;;;;;;;;;5.15;63.15;100008.56;4987946;28;5068;-76
2023/03/30 09:20:38;;;;;;;;;;;;;;;5.20;63.08;100010.63;4987067;28;5109;-78
2023/03/30 09:23:30;;;;;;;;;;;;;;;5.14;63.32;100006.06;4986911;28;5176;-77
2023/03/30 09:26:23;;;;;;;;;;;;;;;5.14;63.32;100006.88;4986159;28;5031;-77
2023/03/30 09:29:14;;;;;;;;;;;;;;;5.17;63.30;100011.00;4985438;28;5012;-78
2023/03/30 09:32:06;;;;;;;;;;;;;;;5.15;63.32;100002.41;4989799;28;5076;-76
2023/03/30 09:34:58;;;;;;;;;;;;;;;5.17;63.05;99993.13;4988809;28;5273;-77
2023/03/30 09:37:50;;;;;;;;;;;;;;;5.20;63.13;99995.41;4990068;28;5365;-78
2023/03/30 09:40:42;;;;;;;;;;;;;;;5.18;63.22;99996.66;4988904;28;5369;-81
2023/03/30 09:43:34;;;;;;;;;;;;;;;5.15;63.19;99987.19;4988517;28;5195;-77
2023/03/30 09:46:26;;;;;;;;;;;;;;;5.17;63.27;99986.97;4988070;28;5671;-77
2023/03/30 09:49:17;;;;;;;;;;;;;;;5.14;63.42;99982.88;4975802;28;4851;-77
2023/03/30 09:52:09;;;;;;;;;;;;;;;5.11;63.54;99982.44;4975269;28;4685;-78
2023/03/30 09:55:01;;;;;;;;;;;;;;;5.21;62.97;99974.91;4977915;28;4952;-78
2023/03/30 09:57:54;;;;;;;;;;;;;;;5.20;63.14;99973.25;4975846;28;4796;-77
2023/03/30 10:00:45;;;;;;;;;;;;;;;5.10;63.54;99965.59;4977339;28;4854;-77
2023/03/30 10:03:36;;;;;;;;;;;;;;;5.05;63.61;99965.38;4987449;28;5126;-77
2023/03/30 10:06:28;;;;;;;;;;;;;;;5.03;63.85;99962.09;4988220;28;5068;-78
2023/03/30 10:09:20;;;;;;;;;;;;;;;4.99;64.03;99961.63;4987060;28;5119;-77
2023/03/30 10:12:12;;;;;;;;;;;;;;;5.08;63.65;99972.16;4986800;28;5345;-77
2023/03/30 10:15:04;;;;;;;;;;;;;;;5.09;63.55;99966.63;4986609;28;5229;-78
2023/03/30 10:17:56;;;;;;;;;;;;;;;5.13;63.57;99969.72;4988843;28;5063;-76
2023/03/30 10:20:50;;;;;;;;;;;;;;;5.16;63.31;99966.66;4985097;28;5024;-78
2023/03/30 10:23:43;;;;;;;;;;;;;;;5.15;63.40;99963.16;4987259;28;5182;-76
2023/03/30 10:26:34;;;;;;;;;;;;;;;5.12;63.48;99971.59;4987123;28;5123;-79
2023/03/30 10:29:26;;;;;;;;;;;;;;;5.09;63.74;99960.44;4988453;28;5035;-77
2023/03/30 10:32:18;;;;;;;;;;;;;;;5.08;63.71;99958.81;4985555;28;5217;-77
2023/03/30 10:35:13;;;;;;;;;;;;;;;5.04;63.78;99957.56;4986666;28;5090;-78
2023/03/30 10:38:04;;;;;;;;;;;;;;;5.03;63.87;99953.25;4986223;28;6947;-77
2023/03/30 10:41:01;;;;;;;;;;;;;;;5.06;63.89;99939.50;4984287;28;5055;-76
2023/03/30 10:43:53;;;;;;;;;;;;;;;5.05;63.87;99944.00;4988404;28;5120;-77
2023/03/30 10:46:44;;;;;;;;;;;;;;;5.13;63.58;99937.69;4986423;28;5033;-77
2023/03/30 10:49:36;;;;;;;;;;;;;;;5.06;63.75;99935.00;4985121;28;5041;-78
2023/03/30 10:52:27;;;;;;;;;;;;;;;5.07;63.85;99930.47;4985188;28;4957;-80
2023/03/30 10:55:19;;;;;;;;;;;;;;;5.09;63.83;99923.94;4986397;28;4874;-77
2023/03/30 10:58:11;;;;;;;;;;;;;;;5.07;63.93;99920.63;4989935;28;4961;-79
2023/03/30 11:01:03;;;;;;;;;;;;;;;5.07;63.86;99917.13;4986517;28;5017;-79
2023/03/30 11:03:56;;;;;;;;;;;;;;;5.06;63.73;99915.47;4988647;28;4989;-78
2023/03/30 11:06:48;;;;;;;;;;;;;;;5.10;63.93;99906.06;4985966;28;5285;-77
2023/03/30 11:09:40;;;;;;;;;;;;;;;5.16;63.61;99923.94;4988376;28;4887;-79
2023/03/30 11:12:32;;;;;;;;;;;;;;;5.08;63.72;99908.91;4990192;28;4886;-78
2023/03/30 11:15:25;;;;;;;;;;;;;;;5.10;63.66;99908.72;4990738;28;5051;-75
2023/03/30 11:18:17;;;;;;;;;;;;;;;5.12;63.71;99909.38;4988541;28;5037;-77
2023/03/30 11:21:08;;;;;;;;;;;;;;;5.12;63.71;99899.50;4990438;28;4862;-76
2023/03/30 11:24:00;;;;;;;;;;;;;;;5.12;63.70;99902.16;4993083;28;5108;-79
2023/03/30 11:26:52;;;;;;;;;;;;;;;5.06;63.79;99896.78;4986907;28;4921;-79
2023/03/30 11:29:44;;;;;;;;;;;;;;;5.06;63.84;99902.13;4987605;28;5131;-81
2023/03/30 11:32:36;;;;;;;;;;;;;;;5.05;63.83;99897.81;4990492;28;4898;-79
2023/03/30 11:35:28;;;;;;;;;;;;;;;5.10;63.59;99887.38;4985937;28;5140;-76
2023/03/30 11:38:20;;;;;;;;;;;;;;;5.09;63.62;99881.22;4988516;28;4998;-78
2023/03/30 11:41:12;;;;;;;;;;;;;;;5.09;63.79;99883.88;4990624;28;5083;-76
2023/03/30 11:44:04;;;;;;;;;;;;;;;5.08;63.88;99881.41;4988267;28;5052;-78
2023/03/30 11:46:56;;;;;;;;;;;;;;;5.05;63.96;99879.13;4990971;28;5031;-77
2023/03/30 11:49:48;;;;;;;;;;;;;;;5.03;64.11;99873.16;4991089;28;5080;-78
2023/03/30 11:52:40;;;;;;;;;;;;;;;5.01;64.07;99876.88;4989535;28;4926;-79
2023/03/30 11:55:32;;;;;;;;;;;;;;;5.04;63.99;99875.66;4988794;28;5297;-77
2023/03/30 11:58:24;;;;;;;;;;;;;;;5.03;64.17;99865.16;4988942;28;5049;-80
2023/03/30 12:01:15;;;;;;;;;;;;;;;5.04;64.14;99864.16;4986785;28;5047;-79
2023/03/30 12:04:07;;;;;;;;;;;;;;;5.01;64.21;99863.53;4985301;28;4923;-77
2023/03/30 12:06:59;;;;;;;;;;;;;;;5.06;63.87;99856.75;4988645;28;4969;-77
2023/03/30 12:09:51;;;;;;;;;;;;;;;5.14;63.76;99852.06;4987678;28;4848;-79
2023/03/30 12:12:43;;;;;;;;;;;;;;;5.07;63.98;99853.06;4981757;28;4697;-78
2023/03/30 12:15:34;;;;;;;;;;;;;;;5.04;63.91;99851.63;4989495;28;4920;-78
2023/03/30 12:18:26;;;;;;;;;;;;;;;5.01;64.07;99847.50;4986792;28;5019;-78
2023/03/30 12:21:17;;;;;;;;;;;;;;;5.06;63.95;99838.06;4987914;28;5043;-77
2023/03/30 12:24:09;;;;;;;;;;;;;;;5.05;64.09;99836.44;4991343;28;5033;-78
2023/03/30 12:27:01;;;;;;;;;;;;;;;5.02;64.11;99832.31;4988864;28;5265;-79
2023/03/30 12:29:52;;;;;;;;;;;;;;;5.00;64.24;99837.88;4987566;28;5257;-80
2023/03/30 12:32:44;;;;;;;;;;;;;;;5.02;64.16;99821.63;4986321;28;4866;-80
2023/03/30 12:35:36;;;;;;;;;;;;;;;5.03;64.43;99825.97;4986886;28;4939;-79
2023/03/30 12:38:28;;;;;;;;;;;;;;;5.05;64.03;99820.41;4985962;28;4977;-78
2023/03/30 12:41:21;;;;;;;;;;;;;;;5.03;64.29;99820.63;4989663;28;5068;-78
2023/03/30 12:44:14;;;;;;;;;;;;;;;5.05;64.20;99820.41;4987484;28;5076;-77
2023/03/30 12:47:08;;;;;;;;;;;;;;;5.01;64.39;99825.34;4988915;28;4932;-79
2023/03/30 12:50:00;;;;;;;;;;;;;;;5.06;64.31;99822.06;4989554;28;5173;-78
2023/03/30 12:52:51;;;;;;;;;;;;;;;5.05;64.29;99815.06;4977826;28;4864;-77
2023/03/30 12:55:43;;;;;;;;;;;;;;;5.02;64.37;99808.28;4976567;28;4815;-79
2023/03/30 12:58:35;;;;;;;;;;;;;;;5.06;64.31;99800.69;4974748;28;4719;-78
2023/03/30 13:01:27;;;;;;;;;;;;;;;5.05;64.09;99802.56;4976946;28;4843;-78
2023/03/30 13:04:19;;;;;;;;;;;;;;;5.04;64.06;99797.44;4974138;28;4779;-82
2023/03/30 13:07:11;;;;;;;;;;;;;;;5.06;64.24;99801.53;4976305;28;4778;-79
2023/03/30 13:10:03;;;;;;;;;;;;;;;5.05;64.18;99789.22;4979053;28;4688;-79
2023/03/30 13:12:55;;;;;;;;;;;;;;;5.05;64.32;99789.22;4989526;28;4622;-77
2023/03/30 13:15:47;;;;;;;;;;;;;;;5.04;64.14;99781.41;4988507;28;5024;-75
2023/03/30 13:18:39;;;;;;;;;;;;;;;5.04;64.30;99782.22;4983964;28;5119;-76
2023/03/30 13:21:31;;;;;;;;;;;;;;;5.06;64.18;99782.88;4988211;28;5108;-77
2023/03/30 13:24:23;;;;;;;;;;;;;;;5.07;64.26;99779.16;4988374;28;4996;-78
2023/03/30 13:27:15;;;;;;;;;;;;;;;5.07;64.21;99776.50;4988206;28;4902;-77
2023/03/30 13:30:07;;;;;;;;;;;;;;;5.10;63.95;99767.25;4988270;28;4943;-75
2023/03/30 13:33:00;;;;;;;;;;;;;;;5.11;63.97;99764.38;4984459;28;5016;-75
2023/03/30 13:35:51;;;;;;;;;;;;;;;5.08;64.14;99756.78;4986383;28;4941;-76
2023/03/30 13:38:43;;;;;;;;;;;;;;;5.08;64.13;99758.63;4989142;28;4985;-76
2023/03/30 13:41:35;;;;;;;;;;;;;;;5.11;64.07;99747.53;4987027;28;4871;-75
2023/03/30 13:44:27;;;;;;;;;;;;;;;5.10;64.16;99738.72;4988238;28;5024;-76
2023/03/30 13:47:21;;;;;;;;;;;;;;;5.12;64.03;99738.53;4984348;28;5092;-75
2023/03/30 13:50:12;;;;;;;;;;;;;;;5.12;64.10;99733.19;4973117;28;4880;-76
2023/03/30 13:53:04;;;;;;;;;;;;;;;5.11;64.00;99736.84;4982003;28;4680;-76
2023/03/30 13:55:56;;;;;;;;;;;;;;;5.11;64.07;99731.53;4978606;28;4420;-77
2023/03/30 13:58:48;;;;;;;;;;;;;;;5.10;64.09;99735.22;4989658;28;4931;-76
2023/03/30 14:01:40;;;;;;;;;;;;;;;5.12;64.10;99730.50;4987341;28;5221;-77
2023/03/30 14:04:32;;;;;;;;;;;;;;;5.12;63.98;99722.50;4986250;28;5343;-75
2023/03/30 14:07:24;;;;;;;;;;;;;;;5.10;64.04;99716.53;4985934;28;4937;-76
2023/03/30 14:10:16;;;;;;;;;;;;;;;5.11;64.08;99715.50;4988930;28;5390;-77
2023/03/30 14:13:08;;;;;;;;;;;;;;;5.08;64.34;99719.41;4988477;28;5024;-75
2023/03/30 14:16:00;;;;;;;;;;;;;;;5.07;64.42;99711.63;4989483;28;5235;-78
2023/03/30 14:18:53;;;;;;;;;;;;;;;5.08;64.24;99705.25;4985020;28;4990;-76
2023/03/30 14:21:45;;;;;;;;;;;;;;;5.11;64.29;99710.97;4982125;28;4906;-77
2023/03/30 14:24:37;;;;;;;;;;;;;;;5.11;64.40;99704.81;4986712;28;4958;-76
2023/03/30 14:27:29;;;;;;;;;;;;;;;5.10;64.18;99695.19;4985706;28;5297;-76
2023/03/30 14:30:21;;;;;;;;;;;;;;;5.13;64.06;99695.59;4984926;28;5084;-77
2023/03/30 14:33:12;;;;;;;;;;;;;;;5.10;64.18;99690.66;4987423;28;5037;-76
2023/03/30 14:36:04;;;;;;;;;;;;;;;5.15;64.19;99692.72;4989026;28;5246;-78
2023/03/30 14:38:57;;;;;;;;;;;;;;;5.08;64.26;99692.72;4987253;28;4973;-76
2023/03/30 14:41:49;;;;;;;;;;;;;;;5.08;64.28;99684.69;4988444;28;5153;-77
2023/03/30 14:44:40;;;;;;;;;;;;;;;5.08;64.38;99679.38;4991569;28;5021;-76
2023/03/30 14:47:32;;;;;;;;;;;;;;;5.08;64.23;99679.38;4993810;28;4938;-77
2023/03/30 14:50:24;;;;;;;;;;;;;;;5.09;64.33;99674.84;4991538;28;5593;-76
2023/03/30 14:53:16;;;;;;;;;;;;;;;5.08;64.18;99683.88;4991873;28;5130;-76
2023/03/30 14:56:08;;;;;;;;;;;;;;;5.09;64.19;99664.16;4989152;28;4773;-75
2023/03/30 14:59:00;;;;;;;;;;;;;;;5.10;64.33;99660.50;4987555;28;5593;-76
2023/03/30 15:01:52;;;;;;;;;;;;;;;5.11;64.43;99659.44;4993058;28;4683;-77
2023/03/30 15:04:44;;;;;;;;;;;;;;;5.12;64.18;99658.44;4993675;28;5044;-77
2023/03/30 15:07:36;;;;;;;;;;;;;;;5.12;64.12;99653.91;4989182;28;4859;-76
2023/03/30 15:10:28;;;;;;;;;;;;;;;5.11;64.23;99656.78;4991264;28;4949;-77
2023/03/30 15:13:20;;;;;;;;;;;;;;;5.10;64.37;99661.31;4988767;28;4934;-78